createdAt,value
2019-05-18T00:00:47.433Z,9.34
2019-05-18T00:01:47.417Z,9.37
2019-05-18T00:02:47.428Z,9.31
2019-05-18T00:03:47.407Z,9.31
2019-05-18T00:04:47.381Z,9.34
2019-05-18T00:05:47.365Z,9.29
2019-05-18T00:06:47.361Z,9.19
2019-05-18T00:07:47.366Z,9.29
2019-05-18T00:08:47.360Z,9.28
2019-05-18T00:09:47.325Z,9.19
2019-05-18T00:10:47.314Z,9.34
2019-05-18T00:11:47.338Z,9.28
2019-05-18T00:12:47.290Z,9.19
2019-05-18T00:13:47.289Z,9.21
2019-05-18T00:14:47.270Z,9.21
2019-05-18T00:15:47.274Z,9.18
2019-05-18T00:16:47.245Z,9.28
2019-05-18T00:17:47.238Z,9.21
2019-05-18T00:18:47.232Z,9.21
2019-05-18T00:19:47.214Z,9.18
2019-05-18T00:20:47.207Z,9.13
2019-05-18T00:21:47.217Z,9.10
2019-05-18T00:22:47.214Z,9.04
2019-05-18T00:23:47.194Z,9.11
2019-05-18T00:24:47.154Z,9.10
2019-05-18T00:25:47.146Z,9.10
2019-05-18T00:26:47.130Z,9.06
2019-05-18T00:27:47.165Z,9.04
2019-05-18T00:28:47.120Z,9.11
2019-05-18T00:29:47.126Z,9.08
2019-05-18T00:30:47.090Z,9.04
2019-05-18T00:31:47.085Z,9.10
2019-05-18T00:32:47.074Z,8.99
2019-05-18T00:33:47.064Z,9.08
2019-05-18T00:34:47.098Z,9.02
2019-05-18T00:35:47.046Z,9.08
2019-05-18T00:36:47.039Z,8.97
2019-05-18T00:37:47.054Z,9.02
2019-05-18T00:38:47.000Z,8.89
2019-05-18T00:39:46.993Z,8.89
2019-05-18T00:40:46.986Z,8.94
2019-05-18T00:41:46.972Z,8.94
2019-05-18T00:42:46.981Z,8.91
2019-05-18T00:43:46.945Z,8.95
2019-05-18T00:44:46.960Z,9.00
2019-05-18T00:45:46.922Z,8.92
2019-05-18T00:46:46.912Z,8.94
2019-05-18T00:47:46.906Z,8.85
2019-05-18T00:48:46.921Z,8.89
2019-05-18T00:49:46.886Z,8.89
2019-05-18T00:50:46.870Z,8.88
2019-05-18T00:51:46.857Z,8.88
2019-05-18T00:52:46.842Z,8.88
2019-05-18T00:53:46.845Z,8.91
2019-05-18T00:54:46.837Z,8.91
2019-05-18T00:55:46.810Z,8.84
2019-05-18T00:56:46.850Z,8.88
2019-05-18T00:57:46.797Z,8.91
2019-05-18T00:58:46.774Z,8.92
2019-05-18T00:59:46.781Z,8.85
2019-05-18T01:00:46.774Z,8.87
2019-05-18T01:01:46.747Z,8.85
2019-05-18T01:02:46.745Z,8.88
2019-05-18T01:03:46.721Z,8.84
2019-05-18T01:04:46.716Z,8.84
2019-05-18T01:05:46.709Z,8.84
2019-05-18T01:06:46.690Z,8.74
2019-05-18T01:07:46.701Z,8.74
2019-05-18T01:08:46.675Z,8.74
2019-05-18T01:09:46.677Z,8.73
2019-05-18T01:10:46.649Z,8.74
2019-05-18T01:11:46.650Z,8.70
2019-05-18T01:12:46.625Z,8.70
2019-05-18T01:13:46.606Z,8.70
2019-05-18T01:14:46.597Z,8.76
2019-05-18T01:15:46.604Z,8.71
2019-05-18T01:16:46.581Z,8.70
2019-05-18T01:17:56.782Z,8.78
2019-05-18T01:18:47.589Z,8.66
2019-05-18T01:19:46.565Z,8.69
2019-05-18T01:20:46.553Z,8.61
2019-05-18T01:21:46.531Z,8.71
2019-05-18T01:22:46.529Z,8.64
2019-05-18T01:23:46.538Z,8.61
2019-05-18T01:24:46.496Z,8.61
2019-05-18T01:25:46.481Z,8.64
2019-05-18T01:26:46.478Z,8.58
2019-05-18T01:27:46.453Z,8.61
2019-05-18T01:28:46.453Z,8.60
2019-05-18T01:29:46.442Z,8.58
2019-05-18T01:30:46.450Z,8.61
2019-05-18T01:31:46.414Z,8.63
2019-05-18T01:32:46.409Z,8.70
2019-05-18T01:33:46.401Z,8.66
2019-05-18T01:34:46.381Z,8.69
2019-05-18T01:35:46.361Z,8.63
2019-05-18T01:36:46.364Z,8.70
2019-05-18T01:37:46.342Z,8.67
2019-05-18T01:38:46.337Z,8.67
2019-05-18T01:39:46.321Z,8.69
2019-05-18T01:40:46.318Z,8.63
2019-05-18T01:41:46.341Z,8.61
2019-05-18T01:42:46.317Z,8.63
2019-05-18T01:43:46.285Z,8.63
2019-05-18T01:44:46.268Z,8.69
2019-05-18T01:45:46.295Z,8.58
2019-05-18T01:46:46.241Z,8.63
2019-05-18T01:47:46.268Z,8.63
2019-05-18T01:48:46.226Z,8.64
2019-05-18T01:49:46.233Z,8.60
2019-05-18T01:50:46.197Z,8.61
2019-05-18T01:51:46.190Z,8.64
2019-05-18T01:52:46.185Z,8.58
2019-05-18T01:53:46.217Z,8.60
2019-05-18T01:54:46.225Z,8.61
2019-05-18T01:55:46.151Z,8.51
2019-05-18T01:56:46.144Z,8.49
2019-05-18T01:57:46.134Z,8.52
2019-05-18T01:58:46.186Z,8.58
2019-05-18T01:59:46.113Z,8.60
2019-05-18T02:00:46.085Z,8.55
2019-05-18T02:01:46.073Z,8.53
2019-05-18T02:02:46.081Z,8.58
2019-05-18T02:03:46.057Z,8.64
2019-05-18T02:04:46.110Z,8.61
2019-05-18T02:05:46.027Z,8.63
2019-05-18T02:06:46.029Z,8.63
2019-05-18T02:07:46.017Z,8.63
2019-05-18T02:08:46.021Z,8.61
2019-05-18T02:09:46.015Z,8.56
2019-05-18T02:10:45.998Z,8.61
2019-05-18T02:11:45.969Z,8.61
2019-05-18T02:12:45.961Z,8.60
2019-05-18T02:13:45.949Z,8.55
2019-05-18T02:14:45.930Z,8.52
2019-05-18T02:15:45.949Z,8.53
2019-05-18T02:16:45.925Z,8.51
2019-05-18T02:17:45.894Z,8.48
2019-05-18T02:18:45.885Z,8.49
2019-05-18T02:19:45.879Z,8.58
2019-05-18T02:20:45.865Z,8.51
2019-05-18T02:21:45.864Z,8.48
2019-05-18T02:22:45.846Z,8.52
2019-05-18T02:23:45.825Z,8.51
2019-05-18T02:24:45.825Z,8.49
2019-05-18T02:25:45.809Z,8.48
2019-05-18T02:26:45.829Z,8.48
2019-05-18T02:27:45.789Z,8.45
2019-05-18T02:28:45.794Z,8.45
2019-05-18T02:29:45.761Z,8.49
2019-05-18T02:30:45.750Z,8.45
2019-05-18T02:31:45.758Z,8.45
2019-05-18T02:32:45.739Z,8.45
2019-05-18T02:33:45.719Z,8.46
2019-05-18T02:34:45.705Z,8.42
2019-05-18T02:35:45.698Z,8.45
2019-05-18T02:36:45.710Z,8.42
2019-05-18T02:37:45.729Z,8.46
2019-05-18T02:38:45.709Z,8.45
2019-05-18T02:39:45.657Z,8.45
2019-05-18T02:40:45.660Z,8.48
2019-05-18T02:41:45.655Z,8.52
2019-05-18T02:42:45.642Z,8.46
2019-05-18T02:43:45.641Z,8.46
2019-05-18T02:44:45.599Z,8.48
2019-05-18T02:45:45.586Z,8.41
2019-05-18T02:46:45.577Z,8.46
2019-05-18T02:47:45.571Z,8.42
2019-05-18T02:48:50.052Z,8.37
2019-05-18T02:49:46.558Z,8.36
2019-05-18T02:50:45.529Z,8.42
2019-05-18T02:51:45.537Z,8.45
2019-05-18T02:52:45.510Z,8.38
2019-05-18T02:53:45.498Z,8.38
2019-05-18T02:54:45.542Z,8.38
2019-05-18T02:55:45.475Z,8.36
2019-05-18T02:56:45.470Z,8.31
2019-05-18T02:57:45.453Z,8.36
2019-05-18T02:58:45.441Z,8.31
2019-05-18T02:59:45.450Z,8.31
2019-05-18T03:00:45.425Z,8.27
2019-05-18T03:01:45.406Z,8.31
2019-05-18T03:02:45.402Z,8.37
2019-05-18T03:03:45.394Z,8.36
2019-05-18T03:04:45.389Z,8.27
2019-05-18T03:05:45.377Z,8.27
2019-05-18T03:06:45.375Z,8.26
2019-05-18T03:07:45.401Z,8.31
2019-05-18T03:08:45.337Z,8.34
2019-05-18T03:09:45.326Z,8.31
2019-05-18T03:10:45.317Z,8.26
2019-05-18T03:11:45.305Z,8.24
2019-05-18T03:12:45.285Z,8.28
2019-05-18T03:13:45.277Z,8.27
2019-05-18T03:14:45.266Z,8.19
2019-05-18T03:15:45.269Z,8.19
2019-05-18T03:16:45.250Z,8.18
2019-05-18T03:17:45.238Z,8.15
2019-05-18T03:18:45.257Z,8.18
2019-05-18T03:19:45.206Z,8.15
2019-05-18T03:20:45.210Z,8.13
2019-05-18T03:21:45.190Z,8.16
2019-05-18T03:22:45.169Z,8.16
2019-05-18T03:23:45.162Z,8.13
2019-05-18T03:24:45.162Z,8.12
2019-05-18T03:25:45.144Z,8.15
2019-05-18T03:26:45.137Z,8.19
2019-05-18T03:27:45.142Z,8.12
2019-05-18T03:28:45.146Z,8.13
2019-05-18T03:29:45.134Z,8.13
2019-05-18T03:30:45.123Z,8.15
2019-05-18T03:31:45.094Z,8.16
2019-05-18T03:32:45.062Z,8.16
2019-05-18T03:33:45.062Z,8.13
2019-05-18T03:34:45.034Z,8.05
2019-05-18T03:35:45.072Z,8.10
2019-05-18T03:36:45.018Z,8.05
2019-05-18T03:37:45.017Z,8.09
2019-05-18T03:38:44.990Z,8.10
2019-05-18T03:39:44.990Z,8.15
2019-05-18T03:40:45.006Z,8.12
2019-05-18T03:41:44.990Z,8.15
2019-05-18T03:42:44.944Z,8.10
2019-05-18T03:43:44.950Z,8.12
2019-05-18T03:44:44.945Z,8.15
2019-05-18T03:45:44.917Z,8.10
2019-05-18T03:46:44.902Z,8.10
2019-05-18T03:47:44.906Z,8.16
2019-05-18T03:48:44.890Z,8.10
2019-05-18T03:49:44.886Z,8.19
2019-05-18T03:50:44.870Z,8.10
2019-05-18T03:51:44.852Z,8.12
2019-05-18T03:52:44.854Z,8.10
2019-05-18T03:53:44.854Z,8.10
2019-05-18T03:54:44.814Z,8.09
2019-05-18T03:55:44.838Z,8.15
2019-05-18T03:56:44.835Z,8.09
2019-05-18T03:57:44.800Z,8.18
2019-05-18T03:58:44.792Z,8.13
2019-05-18T03:59:44.762Z,8.18
2019-05-18T04:00:44.783Z,8.20
2019-05-18T04:01:44.734Z,8.20
2019-05-18T04:02:44.734Z,8.19
2019-05-18T04:03:44.746Z,8.13
2019-05-18T04:04:44.709Z,8.27
2019-05-18T04:05:44.745Z,8.24
2019-05-18T04:06:44.686Z,8.26
2019-05-18T04:07:44.693Z,8.20
2019-05-18T04:08:44.670Z,8.28
2019-05-18T04:09:44.669Z,8.27
2019-05-18T04:10:44.633Z,8.24
2019-05-18T04:11:44.644Z,8.27
2019-05-18T04:12:44.622Z,8.27
2019-05-18T04:13:44.606Z,8.30
2019-05-18T04:14:44.593Z,8.33
2019-05-18T04:15:44.623Z,8.27
2019-05-18T04:16:44.639Z,8.31
2019-05-18T04:17:44.562Z,8.31
2019-05-18T04:18:44.553Z,8.37
2019-05-18T04:19:47.032Z,8.27
2019-05-18T04:20:44.578Z,8.37
2019-05-18T04:21:44.518Z,8.36
2019-05-18T04:22:44.533Z,8.30
2019-05-18T04:23:44.550Z,8.28
2019-05-18T04:24:44.497Z,8.28
2019-05-18T04:25:44.478Z,8.36
2019-05-18T04:26:44.462Z,8.37
2019-05-18T04:27:44.453Z,8.36
2019-05-18T04:28:44.491Z,8.34
2019-05-18T04:29:44.451Z,8.33
2019-05-18T04:30:44.453Z,8.36
2019-05-18T04:31:44.404Z,8.38
2019-05-18T04:32:44.392Z,8.44
2019-05-18T04:33:44.417Z,8.42
2019-05-18T04:34:44.374Z,8.42
2019-05-18T04:35:44.377Z,8.42
2019-05-18T04:36:44.357Z,8.49
2019-05-18T04:37:44.340Z,8.46
2019-05-18T04:38:44.398Z,8.46
2019-05-18T04:39:44.316Z,8.42
2019-05-18T04:40:44.309Z,8.46
2019-05-18T04:41:44.338Z,8.49
2019-05-18T04:42:44.294Z,8.51
2019-05-18T04:43:44.282Z,8.44
2019-05-18T04:44:44.258Z,8.49
2019-05-18T04:45:44.248Z,8.48
2019-05-18T04:46:44.236Z,8.44
2019-05-18T04:47:48.304Z,8.60
2019-05-18T04:48:44.214Z,8.53
2019-05-18T04:49:44.210Z,8.49
2019-05-18T04:50:44.197Z,8.58
2019-05-18T04:51:44.190Z,8.64
2019-05-18T04:52:44.218Z,8.60
2019-05-18T04:53:44.160Z,8.61
2019-05-18T04:54:44.153Z,8.66
2019-05-18T04:55:44.149Z,8.74
2019-05-18T04:56:44.130Z,8.71
2019-05-18T04:57:44.111Z,8.73
2019-05-18T04:58:44.125Z,8.79
2019-05-18T04:59:44.093Z,8.74
2019-05-18T05:00:44.083Z,8.79
2019-05-18T05:01:44.068Z,8.79
2019-05-18T05:02:44.061Z,8.74
2019-05-18T05:03:44.065Z,8.81
2019-05-18T05:04:44.070Z,8.82
2019-05-18T05:05:44.037Z,8.84
2019-05-18T05:06:44.034Z,8.81
2019-05-18T05:07:44.009Z,8.84
2019-05-18T05:08:44.030Z,8.87
2019-05-18T05:09:44.047Z,8.82
2019-05-18T05:10:43.985Z,8.91
2019-05-18T05:11:43.961Z,8.88
2019-05-18T05:12:43.952Z,8.89
2019-05-18T05:13:43.936Z,8.97
2019-05-18T05:14:43.932Z,8.92
2019-05-18T05:15:43.924Z,8.95
2019-05-18T05:16:43.896Z,8.97
2019-05-18T05:17:43.888Z,8.94
2019-05-18T05:18:43.888Z,8.95
2019-05-18T05:19:43.868Z,8.99
2019-05-18T05:20:43.876Z,8.92
2019-05-18T05:21:43.864Z,8.92
2019-05-18T05:22:43.836Z,9.00
2019-05-18T05:23:43.829Z,8.99
2019-05-18T05:24:43.813Z,9.11
2019-05-18T05:25:43.800Z,9.06
2019-05-18T05:26:43.797Z,9.06
2019-05-18T05:27:43.793Z,9.10
2019-05-18T05:28:43.770Z,9.11
2019-05-18T05:29:43.761Z,9.18
2019-05-18T05:30:43.744Z,9.11
2019-05-18T05:31:43.746Z,9.25
2019-05-18T05:32:43.736Z,9.21
2019-05-18T05:33:43.744Z,9.25
2019-05-18T05:34:43.708Z,9.13
2019-05-18T05:35:43.684Z,9.21
2019-05-18T05:36:43.684Z,9.28
2019-05-18T05:37:43.672Z,9.25
2019-05-18T05:38:43.673Z,9.34
2019-05-18T05:39:43.644Z,9.37
2019-05-18T05:40:43.632Z,9.34
2019-05-18T05:41:43.640Z,9.36
2019-05-18T05:42:43.613Z,9.44
2019-05-18T05:43:43.616Z,9.43
2019-05-18T05:44:43.612Z,9.46
2019-05-18T05:45:43.581Z,9.50
2019-05-18T05:46:43.601Z,9.50
2019-05-18T05:47:43.552Z,9.50
2019-05-18T05:48:43.573Z,9.68
2019-05-18T05:49:43.534Z,9.62
2019-05-18T05:50:43.525Z,9.64
2019-05-18T05:51:43.529Z,9.74
2019-05-18T05:52:43.512Z,9.82
2019-05-18T05:53:43.530Z,9.80
2019-05-18T05:54:43.484Z,9.86
2019-05-18T05:55:43.492Z,9.86
2019-05-18T05:56:43.463Z,9.94
2019-05-18T05:57:43.466Z,9.99
2019-05-18T05:58:43.437Z,9.98
2019-05-18T05:59:43.434Z,10.02
2019-05-18T06:00:43.412Z,10.04
2019-05-18T06:01:43.409Z,10.12
2019-05-18T06:02:43.420Z,10.13
2019-05-18T06:03:43.380Z,10.26
2019-05-18T06:04:43.373Z,10.28
2019-05-18T06:05:43.348Z,10.22
2019-05-18T06:06:43.340Z,10.42
2019-05-18T06:07:43.365Z,10.30
2019-05-18T06:08:43.334Z,10.46
2019-05-18T06:09:43.332Z,10.54
2019-05-18T06:10:43.301Z,10.59
2019-05-18T06:11:43.288Z,10.59
2019-05-18T06:12:43.273Z,10.61
2019-05-18T06:13:43.282Z,10.71
2019-05-18T06:14:43.291Z,10.76
2019-05-18T06:15:43.259Z,10.86
2019-05-18T06:16:43.242Z,10.84
2019-05-18T06:17:43.260Z,10.94
2019-05-18T06:18:43.208Z,10.93
2019-05-18T06:19:43.218Z,11.00
2019-05-18T06:20:51.521Z,11.04
2019-05-18T06:21:44.183Z,11.14
2019-05-18T06:22:43.165Z,11.11
2019-05-18T06:23:43.156Z,11.22
2019-05-18T06:24:43.177Z,11.35
2019-05-18T06:25:43.148Z,11.37
2019-05-18T06:26:43.128Z,11.40
2019-05-18T06:27:43.111Z,11.40
2019-05-18T06:28:43.116Z,11.54
2019-05-18T06:29:43.088Z,11.60
2019-05-18T06:30:43.145Z,11.66
2019-05-18T06:31:43.063Z,11.73
2019-05-18T06:32:43.049Z,11.86
2019-05-18T06:33:43.048Z,11.97
2019-05-18T06:34:43.047Z,12.13
2019-05-18T06:35:43.024Z,12.13
2019-05-18T06:36:43.020Z,12.25
2019-05-18T06:37:43.012Z,12.31
2019-05-18T06:38:43.009Z,12.43
2019-05-18T06:39:42.972Z,12.53
2019-05-18T06:40:42.972Z,12.55
2019-05-18T06:41:42.952Z,12.65
2019-05-18T06:42:42.960Z,12.73
2019-05-18T06:43:42.952Z,12.78
2019-05-18T06:44:42.916Z,12.87
2019-05-18T06:45:42.909Z,12.93
2019-05-18T06:46:42.927Z,12.94
2019-05-18T06:47:42.928Z,12.98
2019-05-18T06:48:42.881Z,13.03
2019-05-18T06:49:42.878Z,13.08
2019-05-18T06:50:42.849Z,13.15
2019-05-18T06:51:42.836Z,13.18
2019-05-18T06:52:42.857Z,13.16
2019-05-18T06:53:42.821Z,13.31
2019-05-18T06:54:42.803Z,13.25
2019-05-18T06:55:42.808Z,13.27
2019-05-18T06:56:42.788Z,13.38
2019-05-18T06:57:42.778Z,13.44
2019-05-18T06:58:42.784Z,13.47
2019-05-18T06:59:42.757Z,13.39
2019-05-18T07:00:42.772Z,13.53
2019-05-18T07:01:42.734Z,13.57
2019-05-18T07:02:42.720Z,13.62
2019-05-18T07:03:45.048Z,13.71
2019-05-18T07:04:44.602Z,13.75
2019-05-18T07:05:42.712Z,13.87
2019-05-18T07:06:42.691Z,13.97
2019-05-18T07:07:42.657Z,13.95
2019-05-18T07:08:42.700Z,14.05
2019-05-18T07:09:42.636Z,14.18
2019-05-18T07:10:42.624Z,14.17
2019-05-18T07:11:42.636Z,14.25
2019-05-18T07:12:42.604Z,14.35
2019-05-18T07:13:42.592Z,14.29
2019-05-18T07:14:42.588Z,14.43
2019-05-18T07:15:42.572Z,14.48
2019-05-18T07:16:42.645Z,14.45
2019-05-18T07:17:42.566Z,14.45
2019-05-18T07:18:42.536Z,14.51
2019-05-18T07:19:42.538Z,14.53
2019-05-18T07:20:42.517Z,14.45
2019-05-18T07:21:42.504Z,14.48
2019-05-18T07:22:42.523Z,14.43
2019-05-18T07:23:43.936Z,14.53
2019-05-18T07:24:42.464Z,14.55
2019-05-18T07:25:42.463Z,14.55
2019-05-18T07:26:42.468Z,14.65
2019-05-18T07:27:42.436Z,14.63
2019-05-18T07:28:42.441Z,14.62
2019-05-18T07:29:42.424Z,14.59
2019-05-18T07:30:42.404Z,14.59
2019-05-18T07:31:42.392Z,14.72
2019-05-18T07:32:42.403Z,14.65
2019-05-18T07:33:42.369Z,14.66
2019-05-18T07:34:42.376Z,14.68
2019-05-18T07:35:42.363Z,14.66
2019-05-18T07:36:42.333Z,14.68
2019-05-18T07:37:42.324Z,14.81
2019-05-18T07:38:42.448Z,14.68
2019-05-18T07:39:42.316Z,14.70
2019-05-18T07:40:42.386Z,14.85
2019-05-18T07:41:46.728Z,14.79
2019-05-18T07:42:42.285Z,14.91
2019-05-18T07:43:42.481Z,14.99
2019-05-18T07:44:42.248Z,15.17
2019-05-18T07:45:42.243Z,15.31
2019-05-18T07:46:42.232Z,15.27
2019-05-18T07:47:42.223Z,15.27
2019-05-18T07:48:42.224Z,15.44
2019-05-18T07:49:42.193Z,15.49
2019-05-18T07:50:42.198Z,15.57
2019-05-18T07:51:42.198Z,15.61
2019-05-18T07:52:42.161Z,15.62
2019-05-18T07:53:42.141Z,15.67
2019-05-18T07:54:42.134Z,15.76
2019-05-18T07:55:42.153Z,15.86
2019-05-18T07:56:42.122Z,15.91
2019-05-18T07:57:42.118Z,16.00
2019-05-18T07:58:42.088Z,15.92
2019-05-18T07:59:42.076Z,15.98
2019-05-18T08:00:42.088Z,15.91
2019-05-18T08:01:42.076Z,16.01
2019-05-18T08:02:42.044Z,16.00
2019-05-18T08:03:42.032Z,16.04
2019-05-18T08:04:42.020Z,16.12
2019-05-18T08:05:42.044Z,16.16
2019-05-18T08:06:41.996Z,16.26
2019-05-18T08:07:42.008Z,16.24
2019-05-18T08:08:41.984Z,16.38
2019-05-18T08:09:41.964Z,16.43
2019-05-18T08:10:43.757Z,16.57
2019-05-18T08:11:41.940Z,16.71
2019-05-18T08:12:41.973Z,16.71
2019-05-18T08:13:41.920Z,16.75
2019-05-18T08:14:41.908Z,16.81
2019-05-18T08:15:41.922Z,16.90
2019-05-18T08:16:41.887Z,16.79
2019-05-18T08:17:41.892Z,16.90
2019-05-18T08:18:41.893Z,17.01
2019-05-18T08:19:41.847Z,16.96
2019-05-18T08:20:41.843Z,16.99
2019-05-18T08:21:52.718Z,17.05
2019-05-18T08:22:42.863Z,17.19
2019-05-18T08:23:41.804Z,17.22
2019-05-18T08:24:41.811Z,17.30
2019-05-18T08:25:41.783Z,17.34
2019-05-18T08:26:41.796Z,17.42
2019-05-18T08:27:41.763Z,17.57
2019-05-18T08:28:41.786Z,17.59
2019-05-18T08:29:41.746Z,17.45
2019-05-18T08:30:41.732Z,17.49
2019-05-18T08:31:41.724Z,17.56
2019-05-18T08:32:41.739Z,17.64
2019-05-18T08:33:41.703Z,17.70
2019-05-18T08:34:41.690Z,17.71
2019-05-18T08:35:41.676Z,17.65
2019-05-18T08:36:41.696Z,17.79
2019-05-18T08:37:41.656Z,17.83
2019-05-18T08:38:41.656Z,17.80
2019-05-18T08:39:41.651Z,17.90
2019-05-18T08:40:41.636Z,17.94
2019-05-18T08:41:41.609Z,18.07
2019-05-18T08:42:41.598Z,18.19
2019-05-18T08:43:41.596Z,18.18
2019-05-18T08:44:41.588Z,18.35
2019-05-18T08:45:41.587Z,18.40
2019-05-18T08:46:41.556Z,18.43
2019-05-18T08:47:41.547Z,18.47
2019-05-18T08:48:41.563Z,18.45
2019-05-18T08:49:41.539Z,18.45
2019-05-18T08:50:41.528Z,18.52
2019-05-18T08:51:41.504Z,18.55
2019-05-18T08:52:41.480Z,18.56
2019-05-18T08:53:41.490Z,18.70
2019-05-18T08:54:41.461Z,18.81
2019-05-18T08:55:41.461Z,18.73
2019-05-18T08:56:41.451Z,18.65
2019-05-18T08:57:41.427Z,18.52
2019-05-18T08:58:41.423Z,18.49
2019-05-18T08:59:41.493Z,18.45
2019-05-18T09:00:41.413Z,18.49
2019-05-18T09:01:41.387Z,18.45
2019-05-18T09:02:41.376Z,18.41
2019-05-18T09:03:41.374Z,18.40
2019-05-18T09:04:41.366Z,18.40
2019-05-18T09:05:41.363Z,18.58
2019-05-18T09:06:41.343Z,18.65
2019-05-18T09:07:41.339Z,18.70
2019-05-18T09:08:41.312Z,18.81
2019-05-18T09:09:41.296Z,18.89
2019-05-18T09:10:41.283Z,18.86
2019-05-18T09:11:41.283Z,18.84
2019-05-18T09:12:41.279Z,18.83
2019-05-18T09:13:41.255Z,18.86
2019-05-18T09:14:41.283Z,18.95
2019-05-18T09:15:41.231Z,19.08
2019-05-18T09:16:41.277Z,19.15
2019-05-18T09:17:41.200Z,19.33
2019-05-18T09:18:41.225Z,19.51
2019-05-18T09:19:41.198Z,19.58
2019-05-18T09:20:41.176Z,19.77
2019-05-18T09:21:41.164Z,19.88
2019-05-18T09:22:41.166Z,20.03
2019-05-18T09:23:41.159Z,20.03
2019-05-18T09:24:41.130Z,19.95
2019-05-18T09:25:41.124Z,19.84
2019-05-18T09:26:41.134Z,19.77
2019-05-18T09:27:41.095Z,19.85
2019-05-18T09:28:41.110Z,19.86
2019-05-18T09:29:41.074Z,19.94
2019-05-18T09:30:41.419Z,20.09
2019-05-18T09:31:41.094Z,20.06
2019-05-18T09:32:41.045Z,20.09
2019-05-18T09:33:41.027Z,20.24
2019-05-18T09:34:41.036Z,20.28
2019-05-18T09:35:41.021Z,20.29
2019-05-18T09:36:40.999Z,20.32
2019-05-18T09:37:40.986Z,20.32
2019-05-18T09:38:40.979Z,20.36
2019-05-18T09:39:40.987Z,20.32
2019-05-18T09:40:40.955Z,20.14
2019-05-18T09:41:40.972Z,20.16
2019-05-18T09:42:40.939Z,20.21
2019-05-18T09:43:40.923Z,20.31
2019-05-18T09:44:40.918Z,20.39
2019-05-18T09:45:40.925Z,20.72
2019-05-18T09:46:40.906Z,20.80
2019-05-18T09:47:40.884Z,20.90
2019-05-18T09:48:40.862Z,20.97
2019-05-18T09:49:40.854Z,21.03
2019-05-18T09:50:40.880Z,21.24
2019-05-18T09:51:40.857Z,21.50
2019-05-18T09:52:45.779Z,21.61
2019-05-18T09:53:51.241Z,21.73
2019-05-18T09:54:41.792Z,21.75
2019-05-18T09:55:40.780Z,21.79
2019-05-18T09:56:40.893Z,21.82
2019-05-18T09:57:40.765Z,21.88
2019-05-18T09:58:40.766Z,21.88
2019-05-18T09:59:40.764Z,21.91
2019-05-18T10:00:40.746Z,21.83
2019-05-18T10:01:40.786Z,21.88
2019-05-18T10:02:40.710Z,22.10
2019-05-18T10:03:40.709Z,22.17
2019-05-18T10:04:40.701Z,22.13
2019-05-18T10:05:40.693Z,22.07
2019-05-18T10:06:40.678Z,22.10
2019-05-18T10:07:40.701Z,22.02
2019-05-18T10:08:40.678Z,22.08
2019-05-18T10:09:40.638Z,21.95
2019-05-18T10:10:40.643Z,21.76
2019-05-18T10:11:40.611Z,21.77
2019-05-18T10:12:40.616Z,21.75
2019-05-18T10:13:40.617Z,21.70
2019-05-18T10:14:40.577Z,21.85
2019-05-18T10:15:40.577Z,21.83
2019-05-18T10:16:40.573Z,21.98
2019-05-18T10:17:40.549Z,22.15
2019-05-18T10:18:40.548Z,22.23
2019-05-18T10:19:40.521Z,22.08
2019-05-18T10:20:40.510Z,22.06
2019-05-18T10:21:40.563Z,22.00
2019-05-18T10:22:53.412Z,21.98
2019-05-18T10:23:41.506Z,22.10
2019-05-18T10:24:40.470Z,22.32
2019-05-18T10:25:40.502Z,22.48
2019-05-18T10:26:40.447Z,22.73
2019-05-18T10:27:40.451Z,22.75
2019-05-18T10:28:40.421Z,22.93
2019-05-18T10:29:40.435Z,22.99
2019-05-18T10:30:40.399Z,23.00
2019-05-18T10:31:40.425Z,23.10
2019-05-18T10:32:40.382Z,23.28
2019-05-18T10:33:40.367Z,23.37
2019-05-18T10:34:40.363Z,23.58
2019-05-18T10:35:40.345Z,23.44
2019-05-18T10:36:40.334Z,23.51
2019-05-18T10:37:40.350Z,23.43
2019-05-18T10:38:40.326Z,23.39
2019-05-18T10:39:40.303Z,23.40
2019-05-18T10:40:40.290Z,23.28
2019-05-18T10:41:40.362Z,23.18
2019-05-18T10:42:40.283Z,23.18
2019-05-18T10:43:40.282Z,23.09
2019-05-18T10:44:40.352Z,23.03
2019-05-18T10:45:44.501Z,22.88
2019-05-18T10:46:40.222Z,22.81
2019-05-18T10:47:40.214Z,22.85
2019-05-18T10:48:40.206Z,22.93
2019-05-18T10:49:40.215Z,23.03
2019-05-18T10:50:40.199Z,23.13
2019-05-18T10:51:40.178Z,23.21
2019-05-18T10:52:40.162Z,23.40
2019-05-18T10:53:40.158Z,23.50
2019-05-18T10:54:40.151Z,23.62
2019-05-18T10:55:40.159Z,23.81
2019-05-18T10:56:40.114Z,23.93
2019-05-18T10:57:40.110Z,24.05
2019-05-18T10:58:40.102Z,24.16
2019-05-18T10:59:40.087Z,24.06
2019-05-18T11:00:40.110Z,24.03
2019-05-18T11:01:43.581Z,23.98
2019-05-18T11:02:40.046Z,23.98
2019-05-18T11:03:40.071Z,23.96
2019-05-18T11:04:40.063Z,23.98
2019-05-18T11:05:40.014Z,23.96
2019-05-18T11:06:40.022Z,23.86
2019-05-18T11:07:40.006Z,23.76
2019-05-18T11:08:40.001Z,23.59
2019-05-18T11:09:39.986Z,23.44
2019-05-18T11:10:39.990Z,23.34
2019-05-18T11:11:39.953Z,23.37
2019-05-18T11:12:39.947Z,23.27
2019-05-18T11:13:39.949Z,23.41
2019-05-18T11:14:39.974Z,23.28
2019-05-18T11:15:39.906Z,23.27
2019-05-18T11:16:39.894Z,23.13
2019-05-18T11:17:39.895Z,23.20
2019-05-18T11:18:39.883Z,23.18
2019-05-18T11:19:39.943Z,23.28
2019-05-18T11:20:39.850Z,23.36
2019-05-18T11:21:39.834Z,23.55
2019-05-18T11:22:39.869Z,23.63
2019-05-18T11:23:44.201Z,23.77
2019-05-18T11:24:39.822Z,23.87
2019-05-18T11:25:39.810Z,23.96
2019-05-18T11:26:39.987Z,24.02
2019-05-18T11:27:39.786Z,24.23
2019-05-18T11:28:39.762Z,24.26
2019-05-18T11:29:39.777Z,24.38
2019-05-18T11:30:39.743Z,24.43
2019-05-18T11:31:39.756Z,24.68
2019-05-18T11:32:39.717Z,24.69
2019-05-18T11:33:39.706Z,24.73
2019-05-18T11:34:39.705Z,24.93
2019-05-18T11:35:39.686Z,24.86
2019-05-18T11:36:39.673Z,24.77
2019-05-18T11:37:39.727Z,24.76
2019-05-18T11:38:39.686Z,24.74
2019-05-18T11:39:39.650Z,24.47
2019-05-18T11:40:39.634Z,24.14
2019-05-18T11:41:39.643Z,24.08
2019-05-18T11:42:39.611Z,24.01
2019-05-18T11:43:39.600Z,24.06
2019-05-18T11:44:39.589Z,24.20
2019-05-18T11:45:39.582Z,24.33
2019-05-18T11:46:39.610Z,24.55
2019-05-18T11:47:39.553Z,24.77
2019-05-18T11:48:39.548Z,24.98
2019-05-18T11:49:39.577Z,25.13
2019-05-18T11:50:39.520Z,25.31
2019-05-18T11:51:39.528Z,25.16
2019-05-18T11:52:39.509Z,25.21
2019-05-18T11:53:39.512Z,25.10
2019-05-18T11:54:39.490Z,25.10
2019-05-18T11:55:39.461Z,25.08
2019-05-18T11:56:39.454Z,25.07
2019-05-18T11:57:39.451Z,24.98
2019-05-18T11:58:39.444Z,24.93
2019-05-18T11:59:39.437Z,24.99
2019-05-18T12:00:39.410Z,25.13
2019-05-18T12:01:39.400Z,25.08
2019-05-18T12:02:39.401Z,25.08
2019-05-18T12:03:39.382Z,24.84
2019-05-18T12:04:39.369Z,24.51
2019-05-18T12:05:39.374Z,24.14
2019-05-18T12:06:39.360Z,23.83
2019-05-18T12:07:39.342Z,23.51
2019-05-18T12:08:39.325Z,23.23
2019-05-18T12:09:39.314Z,23.25
2019-05-18T12:10:39.374Z,23.34
2019-05-18T12:11:39.313Z,23.41
2019-05-18T12:12:39.281Z,23.31
2019-05-18T12:13:39.264Z,23.46
2019-05-18T12:14:39.285Z,23.54
2019-05-18T12:15:39.254Z,23.59
2019-05-18T12:16:39.237Z,23.41
2019-05-18T12:17:39.241Z,23.40
2019-05-18T12:18:39.221Z,23.51
2019-05-18T12:19:39.207Z,23.51
2019-05-18T12:20:39.213Z,23.73
2019-05-18T12:21:39.187Z,23.76
2019-05-18T12:22:39.170Z,23.93
2019-05-18T12:23:39.229Z,24.02
2019-05-18T12:24:39.150Z,24.01
2019-05-18T12:25:39.141Z,23.83
2019-05-18T12:26:39.125Z,23.78
2019-05-18T12:27:39.297Z,23.77
2019-05-18T12:28:39.109Z,23.84
2019-05-18T12:29:39.113Z,24.01
2019-05-18T12:30:39.077Z,24.16
2019-05-18T12:31:39.089Z,24.39
2019-05-18T12:32:39.063Z,24.42
2019-05-18T12:33:39.056Z,24.65
2019-05-18T12:34:39.079Z,24.80
2019-05-18T12:35:39.028Z,24.86
2019-05-18T12:36:39.024Z,24.85
2019-05-18T12:37:39.005Z,24.88
2019-05-18T12:38:38.996Z,24.96
2019-05-18T12:39:39.025Z,24.99
2019-05-18T12:40:39.013Z,25.07
2019-05-18T12:41:38.982Z,25.11
2019-05-18T12:42:38.985Z,25.22
2019-05-18T12:43:38.948Z,25.38
2019-05-18T12:44:38.937Z,25.26
2019-05-18T12:45:38.940Z,25.31
2019-05-18T12:46:38.918Z,25.38
2019-05-18T12:47:38.897Z,25.31
2019-05-18T12:48:38.889Z,25.35
2019-05-18T12:49:38.873Z,25.36
2019-05-18T12:50:38.865Z,25.38
2019-05-18T12:51:38.864Z,25.28
2019-05-18T12:52:38.864Z,25.25
2019-05-18T12:53:38.835Z,25.22
2019-05-18T12:54:46.740Z,25.31
2019-05-18T12:55:39.817Z,25.44
2019-05-18T12:56:38.819Z,25.48
2019-05-18T12:57:38.785Z,25.46
2019-05-18T12:58:38.786Z,25.50
2019-05-18T12:59:38.769Z,25.53
2019-05-18T13:00:38.772Z,25.59
2019-05-18T13:01:38.776Z,25.75
2019-05-18T13:02:38.732Z,25.66
2019-05-18T13:03:38.726Z,25.48
2019-05-18T13:04:41.733Z,25.36